Time;durP1;ratioP1;P1;durP2;ratioP2;P2;SDS_P1;SDS_P2;PMS_P1;PMS_P2;Temp;Humidity;BMP_temperature;BMP_pressure;BME280_temperature;BME280_humidity;BME280_pressure;Samples;Min_cycle;Max_cycle;Signal;HPM_P1;HPM_P2
2022/03/18 00:00:27;;;;;;;93.47;45.73;;;;;;;-3.64;58.05;96510.05;1687465;84;21111;-51
2022/03/18 00:02:55;;;;;;;73.90;38.02;;;;;;;-3.59;58.20;96515.81;1682929;83;21071;-51
2022/03/18 00:05:24;;;;;;;48.40;26.07;;;;;;;-3.48;58.10;96511.16;1686060;84;21072;-51
2022/03/18 00:07:52;;;;;;;65.42;32.75;;;;;;;-3.43;57.69;96502.95;1688450;84;21016;-51
2022/03/18 00:10:19;;;;;;;96.32;45.15;;;;;;;-3.41;57.49;96502.08;1690141;83;21497;-50
2022/03/18 00:12:48;;;;;;;160.07;66.15;;;;;;;-3.47;57.42;96506.02;1698781;84;21581;-51
2022/03/18 00:15:15;;;;;;;169.25;71.60;;;;;;;-3.62;57.54;96507.03;1696732;83;21591;-50
2022/03/18 00:17:42;;;;;;;160.03;67.25;;;;;;;-3.73;57.82;96508.45;1689509;84;21606;-50
2022/03/18 00:20:12;;;;;;;140.95;62.53;;;;;;;-3.81;58.26;96503.84;1693538;84;21524;-50
2022/03/18 00:22:42;;;;;;;118.75;53.65;;;;;;;-3.84;58.57;96507.16;1684104;84;21057;-50
2022/03/18 00:25:11;;;;;;;139.82;58.80;;;;;;;-3.88;58.61;96506.20;1683470;84;21336;-51
2022/03/18 00:27:39;;;;;;;104.03;49.23;;;;;;;-3.95;58.79;96503.16;1685978;83;20973;-50
2022/03/18 00:30:09;;;;;;;77.03;40.40;;;;;;;-3.97;58.72;96505.38;1684561;83;21055;-50
2022/03/18 00:32:40;;;;;;;67.03;36.30;;;;;;;-3.98;58.38;96515.89;1692369;84;21456;-51
2022/03/18 00:35:10;;;;;;;56.13;29.32;;;;;;;-4.02;58.16;96514.94;1686123;84;21538;-50
2022/03/18 00:37:38;;;;;;;74.87;39.73;;;;;;;-4.07;58.32;96513.73;1692884;83;21326;-51
2022/03/18 00:40:08;;;;;;;95.95;43.50;;;;;;;-3.99;58.48;96508.39;1697494;82;21074;-50
2022/03/18 00:42:37;;;;;;;85.95;40.30;;;;;;;-3.83;58.50;96510.89;1701159;83;20997;-51
2022/03/18 00:45:06;;;;;;;87.47;42.53;;;;;;;-3.73;58.27;96514.61;1699364;83;20986;-51
2022/03/18 00:53:06;;;;;;;80.90;39.13;;;;;;;-3.37;58.00;96515.13;1702488;84;21030;-49
2022/03/18 00:55:34;;;;;;;46.18;25.95;;;;;;;-3.29;57.98;96515.13;1701385;83;21569;-51
2022/03/18 00:58:02;;;;;;;58.48;30.97;;;;;;;-3.25;56.99;96509.34;1699796;83;21630;-51
2022/03/18 01:00:29;;;;;;;49.98;26.97;;;;;;;-3.29;56.92;96505.72;1700527;84;21069;-50
2022/03/18 01:02:56;;;;;;;40.70;23.22;;;;;;;-3.36;56.86;96513.48;1697411;83;21347;-50
2022/03/18 01:05:24;;;;;;;33.95;21.87;;;;;;;-3.51;56.66;96509.91;1698634;82;21057;-50
2022/03/18 01:07:51;;;;;;;46.25;23.52;;;;;;;-3.57;56.95;96506.87;1702031;83;21053;-51
2022/03/18 01:10:22;;;;;;;45.55;25.70;;;;;;;-3.58;56.89;96504.75;1700839;83;21517;-50
2022/03/18 01:12:50;;;;;;;37.58;22.65;;;;;;;-3.58;56.89;96504.75;1700082;84;21034;-52
2022/03/18 01:15:17;;;;;;;37.33;22.62;;;;;;;-3.63;56.98;96504.91;1700811;83;22877;-51
2022/03/18 01:17:46;;;;;;;37.40;22.00;;;;;;;-3.68;56.79;96502.92;1698827;82;20954;-53
2022/03/18 01:20:13;;;;;;;36.98;22.15;;;;;;;-3.82;56.73;96503.59;1699509;83;20978;-51
2022/03/18 01:22:42;;;;;;;45.35;24.98;;;;;;;-3.96;56.83;96496.20;1701224;84;21014;-50
2022/03/18 01:25:09;;;;;;;42.55;22.32;;;;;;;-3.98;57.16;96498.42;1700320;83;21014;-50
2022/03/18 01:27:37;;;;;;;43.33;21.70;;;;;;;-3.96;57.17;96492.98;1700914;84;21774;-50
2022/03/18 01:30:06;;;;;;;40.92;22.77;;;;;;;-4.00;57.20;96497.41;1700504;83;21239;-51
2022/03/18 01:32:35;;;;;;;39.25;21.57;;;;;;;-4.08;57.44;96501.41;1699479;83;21878;-51
2022/03/18 01:35:03;;;;;;;46.60;25.55;;;;;;;-4.17;57.62;96493.32;1701235;83;20994;-50
2022/03/18 01:37:31;;;;;;;41.98;23.00;;;;;;;-4.17;58.14;96499.23;1698898;83;21049;-51
2022/03/18 01:39:59;;;;;;;47.48;23.73;;;;;;;-4.08;57.75;96491.44;1701675;84;21118;-51
2022/03/18 01:42:26;;;;;;;48.08;26.20;;;;;;;-4.12;57.48;96497.73;1701497;84;20973;-50
2022/03/18 01:44:55;;;;;;;46.23;25.00;;;;;;;-4.14;57.30;96501.29;1699395;83;21065;-51
2022/03/18 01:47:22;;;;;;;51.23;27.98;;;;;;;-4.19;57.37;96497.41;1683248;84;21039;-50
2022/03/18 01:49:50;;;;;;;65.72;29.35;;;;;;;-4.19;57.54;96497.41;1699009;84;21044;-52
2022/03/18 01:52:17;;;;;;;50.65;27.45;;;;;;;-4.21;57.53;96499.62;1701100;83;21312;-51
2022/03/18 01:54:44;;;;;;;49.48;28.00;;;;;;;-4.20;57.93;96505.23;1699692;83;20939;-50
2022/03/18 01:57:14;;;;;;;52.23;25.43;;;;;;;-4.19;57.71;96498.22;1700334;83;21014;-51
2022/03/18 01:59:41;;;;;;;40.40;23.57;;;;;;;-4.25;57.87;96500.01;1701175;83;21112;-50
2022/03/18 02:02:09;;;;;;;48.33;23.45;;;;;;;-4.30;58.03;96500.93;1700453;84;20978;-50
2022/03/18 02:04:37;;;;;;;36.08;21.12;;;;;;;-4.31;57.82;96500.69;1701044;83;21760;-50
2022/03/18 02:07:06;;;;;;;38.10;22.98;;;;;;;-4.36;58.16;96504.87;1701895;84;21019;-51
2022/03/18 02:09:35;;;;;;;43.23;24.57;;;;;;;-4.34;58.90;96505.34;1693058;84;20986;-51
2022/03/18 02:12:05;;;;;;;39.45;23.80;;;;;;;-4.15;59.04;96506.42;1678122;83;21484;-50
2022/03/18 02:14:38;;;;;;;40.00;24.23;;;;;;;-3.94;58.64;96507.44;1700890;83;21006;-51
2022/03/18 02:17:10;;;;;;;45.83;24.05;;;;;;;-3.80;58.29;96508.11;1699088;84;21413;-50
2022/03/18 02:19:39;;;;;;;38.08;21.45;;;;;;;-3.74;57.85;96510.34;1698932;84;20970;-51
2022/03/18 02:22:23;;;;;;;32.63;19.55;;;;;;;-3.69;57.77;96514.78;1699783;84;20971;-49
2022/03/18 02:24:52;;;;;;;30.45;19.00;;;;;;;-3.61;57.21;96509.95;1700734;83;21065;-50
2022/03/18 02:27:20;;;;;;;36.42;19.52;;;;;;;-3.63;56.89;96511.63;1701539;83;21061;-51
2022/03/18 02:29:48;;;;;;;41.73;21.93;;;;;;;-3.75;56.47;96518.16;1701484;83;21188;-54
2022/03/18 02:32:16;;;;;;;44.23;26.12;;;;;;;-3.92;56.83;96530.75;1700666;84;20990;-50
2022/03/18 02:34:44;;;;;;;53.13;27.67;;;;;;;-3.93;57.40;96531.86;1699580;84;21014;-50
2022/03/18 02:37:12;;;;;;;53.15;28.10;;;;;;;-3.85;57.55;96532.45;1699287;83;20971;-49
2022/03/18 02:39:41;;;;;;;54.75;28.87;;;;;;;-3.76;57.45;96534.59;1700298;83;21045;-50
2022/03/18 02:42:08;;;;;;;56.45;30.60;;;;;;;-3.70;57.43;96534.71;1700756;84;21157;-50
2022/03/18 02:44:36;;;;;;;60.25;30.32;;;;;;;-3.62;57.44;96533.92;1700492;84;21423;-51
2022/03/18 02:47:05;;;;;;;69.27;34.65;;;;;;;-3.59;57.11;96537.33;1698681;84;21013;-50
2022/03/18 02:49:32;;;;;;;58.65;31.12;;;;;;;-3.57;56.99;96533.77;1700531;83;21061;-51
2022/03/18 02:52:00;;;;;;;61.28;31.02;;;;;;;-3.54;56.68;96536.62;1699708;83;21026;-51
2022/03/18 02:54:27;;;;;;;41.60;26.40;;;;;;;-3.55;56.46;96535.61;1699185;84;22012;-51
2022/03/18 02:56:55;;;;;;;32.38;20.97;;;;;;;-3.59;56.39;96531.95;1699799;83;20970;-51
2022/03/18 02:59:24;;;;;;;28.45;19.07;;;;;;;-3.76;55.66;96536.75;1700200;82;21502;-51
2022/03/18 03:01:51;;;;;;;32.00;17.57;;;;;;;-4.02;55.84;96535.09;1701381;84;21510;-51
2022/03/18 03:04:19;;;;;;;26.82;16.62;;;;;;;-4.17;56.07;96538.99;1698443;82;21616;-50
2022/03/18 03:09:32;;;;;;;32.53;17.45;;;;;;;-4.50;56.44;96547.13;1688343;83;21106;-51
2022/03/18 03:12:01;;;;;;;24.10;15.58;;;;;;;-4.58;56.66;96556.48;1704752;83;21545;-50
2022/03/18 03:14:28;;;;;;;28.62;18.60;;;;;;;-4.71;56.80;96554.12;1699509;83;20979;-51
2022/03/18 03:16:56;;;;;;;36.65;21.45;;;;;;;-4.84;57.08;96552.29;1702628;83;21474;-49
2022/03/18 03:19:24;;;;;;;34.95;21.10;;;;;;;-4.86;57.53;96552.34;1683635;84;21110;-49
2022/03/18 03:21:51;;;;;;;40.03;22.65;;;;;;;-4.84;58.02;96558.19;1703829;83;21506;-50
2022/03/18 03:24:19;;;;;;;38.65;23.57;;;;;;;-4.79;58.29;96567.48;1708120;82;20958;-53
2022/03/18 03:26:47;;;;;;;38.53;24.47;;;;;;;-4.72;58.50;96573.20;1716673;82;21119;-52
2022/03/18 03:29:14;;;;;;;46.18;27.10;;;;;;;-4.63;58.42;96564.67;1707933;82;21120;-51
2022/03/18 03:31:41;;;;;;;45.15;29.02;;;;;;;-4.57;58.17;96571.48;1706971;82;21312;-51
2022/03/18 03:34:10;;;;;;;32.45;18.10;;;;;;;-4.55;58.14;96580.02;1714382;81;21008;-51
2022/03/18 03:36:37;;;;;;;28.60;18.17;;;;;;;-4.66;57.99;96574.12;1710261;83;20978;-51
2022/03/18 03:39:05;;;;;;;39.60;20.05;;;;;;;-4.73;57.95;96579.67;1710645;83;20971;-51
2022/03/18 03:41:33;;;;;;;29.45;19.27;;;;;;;-4.76;57.97;96578.94;1703409;83;21130;-50
2022/03/18 03:44:00;;;;;;;27.80;19.40;;;;;;;-4.77;57.93;96577.36;1711019;83;21149;-51
2022/03/18 03:46:33;;;;;;;24.80;17.02;;;;;;;-4.85;58.02;96583.44;1711054;83;21018;-50
2022/03/18 03:48:58;;;;;;;26.05;16.50;;;;;;;-4.92;58.16;96580.41;1710917;83;21526;-53
2022/03/18 03:51:25;;;;;;;31.30;18.40;;;;;;;-5.01;58.18;96578.99;1711117;83;20979;-51
2022/03/18 03:53:53;;;;;;;25.25;16.93;;;;;;;-5.07;58.22;96594.17;1711332;83;21042;-49
2022/03/18 03:56:20;;;;;;;33.78;20.27;;;;;;;-5.23;58.31;96592.92;1711127;83;21235;-51
2022/03/18 03:58:48;;;;;;;30.50;17.87;;;;;;;-5.45;58.68;96598.25;1711318;83;20955;-51
2022/03/18 04:01:16;;;;;;;32.28;19.85;;;;;;;-5.55;59.31;96600.34;1697064;83;21008;-51
2022/03/18 04:03:47;;;;;;;33.38;19.98;;;;;;;-5.66;59.57;96601.11;1711453;83;20995;-51
2022/03/18 04:06:15;;;;;;;39.42;22.42;;;;;;;-5.65;60.32;96601.89;1711579;83;21002;-52
2022/03/18 04:08:42;;;;;;;31.07;19.30;;;;;;;-5.52;60.20;96608.59;1711337;83;21426;-51
2022/03/18 04:11:11;;;;;;;31.90;19.92;;;;;;;-5.47;60.00;96608.48;1711382;83;21066;-50
2022/03/18 04:13:40;;;;;;;52.80;25.02;;;;;;;-5.51;59.98;96607.50;1711381;83;21106;-51
2022/03/18 04:16:08;;;;;;;58.25;31.87;;;;;;;-5.57;59.89;96612.70;1711144;83;20970;-51
2022/03/18 04:18:36;;;;;;;65.30;31.12;;;;;;;-5.63;60.06;96615.25;1711314;83;20971;-51
2022/03/18 04:21:04;;;;;;;89.25;42.70;;;;;;;-5.65;60.19;96615.28;1711422;83;21148;-51
2022/03/18 04:23:33;;;;;;;90.05;43.60;;;;;;;-5.58;60.57;96623.73;1711348;83;21458;-50
2022/03/18 04:26:03;;;;;;;112.70;51.98;;;;;;;-5.49;60.54;96628.09;1705444;83;21071;-51
2022/03/18 04:28:31;;;;;;;115.30;51.83;;;;;;;-5.36;60.59;96629.97;1711357;83;21038;-51
2022/03/18 04:30:58;;;;;;;174.93;73.87;;;;;;;-5.21;60.25;96626.94;1711352;83;20967;-50
2022/03/18 04:33:25;;;;;;;94.65;44.33;;;;;;;-5.14;60.05;96626.00;1711236;83;21146;-51
2022/03/18 04:35:53;;;;;;;80.35;38.35;;;;;;;-5.08;59.94;96625.58;1687793;83;21442;-50
2022/03/18 04:38:20;;;;;;;68.80;34.45;;;;;;;-5.02;59.82;96623.55;1689314;84;21009;-52
2022/03/18 04:40:49;;;;;;;100.80;45.10;;;;;;;-4.96;59.71;96620.45;1694775;83;20972;-52
2022/03/18 04:43:17;;;;;;;102.78;44.40;;;;;;;-4.89;59.53;96626.75;1688326;84;20963;-51
2022/03/18 04:45:45;;;;;;;98.03;44.75;;;;;;;-4.78;59.48;96628.11;1694450;84;21755;-51
2022/03/18 04:48:12;;;;;;;64.87;33.88;;;;;;;-4.69;59.07;96628.95;1693601;84;21027;-52
2022/03/18 04:50:41;;;;;;;53.05;29.15;;;;;;;-4.74;58.73;96631.77;1688313;84;21108;-52
2022/03/18 04:53:08;;;;;;;63.45;30.72;;;;;;;-4.92;58.63;96636.75;1693440;84;21032;-51
2022/03/18 04:55:37;;;;;;;60.95;28.70;;;;;;;-5.14;58.85;96635.38;1698744;83;21439;-53
2022/03/18 04:58:04;;;;;;;65.75;32.08;;;;;;;-5.29;59.08;96635.70;1694453;84;21148;-52
2022/03/18 05:00:32;;;;;;;62.75;30.75;;;;;;;-5.47;59.36;96650.03;1690193;84;20954;-51
2022/03/18 05:02:59;;;;;;;62.88;35.43;;;;;;;-5.65;59.93;96646.92;1699013;83;21561;-51
2022/03/18 05:05:27;;;;;;;90.85;41.63;;;;;;;-5.75;60.26;96649.01;1690339;83;20978;-52
2022/03/18 05:07:57;;;;;;;101.47;44.65;;;;;;;-5.85;60.68;96646.01;1694865;84;21007;-51
2022/03/18 05:10:26;;;;;;;100.27;50.98;;;;;;;-6.00;61.11;96647.63;1693369;84;21777;-59
2022/03/18 05:12:54;;;;;;;87.97;47.58;;;;;;;-6.08;61.65;96654.22;1695001;84;20950;-51
2022/03/18 05:15:24;;;;;;;93.52;49.55;;;;;;;-5.99;61.95;96665.29;1695886;83;21534;-50
2022/03/18 05:17:54;;;;;;;104.20;51.50;;;;;;;-5.93;61.93;96654.72;1696131;84;21102;-52
2022/03/18 05:20:21;;;;;;;111.08;54.15;;;;;;;-5.81;62.22;96666.31;1690180;83;21070;-51
2022/03/18 05:22:51;;;;;;;72.00;39.15;;;;;;;-5.70;62.25;96664.45;1703279;84;21276;-52
2022/03/18 05:25:18;;;;;;;129.82;59.03;;;;;;;-5.56;62.06;96665.25;1693261;84;20967;-52
2022/03/18 05:27:47;;;;;;;90.85;43.48;;;;;;;-5.47;61.78;96668.80;1692322;83;21088;-50
2022/03/18 05:30:15;;;;;;;63.35;32.70;;;;;;;-5.37;61.89;96675.31;1692427;84;21082;-51
2022/03/18 05:32:44;;;;;;;84.92;43.63;;;;;;;-5.26;61.35;96676.67;1696969;83;21036;-51
2022/03/18 05:35:12;;;;;;;80.20;40.73;;;;;;;-5.28;61.19;96681.55;1662253;85;22158;-51
2022/03/18 05:37:40;;;;;;;62.70;34.05;;;;;;;-5.26;61.11;96678.02;1667186;85;21487;-51
2022/03/18 05:40:10;;;;;;;77.37;41.65;;;;;;;-5.25;61.12;96684.97;1648974;86;21028;-50
2022/03/18 05:42:37;;;;;;;51.80;28.35;;;;;;;-5.21;61.40;96689.97;1645901;86;21044;-50
2022/03/18 05:45:06;;;;;;;64.03;32.98;;;;;;;-5.03;61.24;96682.34;1646815;84;22150;-53
2022/03/18 05:47:34;;;;;;;57.35;33.18;;;;;;;-4.95;60.91;96688.35;1650151;84;21172;-52
2022/03/18 05:50:05;;;;;;;47.80;28.57;;;;;;;-4.76;60.69;96686.31;1652612;84;21030;-53
2022/03/18 05:52:33;;;;;;;54.70;30.40;;;;;;;-4.49;60.40;96687.54;1652018;84;21513;-53
2022/03/18 05:55:00;;;;;;;54.90;30.72;;;;;;;-4.25;59.66;96681.34;1653747;84;21475;-51
2022/03/18 05:57:28;;;;;;;52.25;28.57;;;;;;;-4.13;58.82;96679.67;1653320;84;21497;-54
2022/03/18 05:59:57;;;;;;;50.33;29.40;;;;;;;-4.09;58.41;96680.64;1650586;84;21206;-53
2022/03/18 06:02:25;;;;;;;61.92;30.82;;;;;;;-4.13;58.14;96682.36;1651508;84;21034;-52
2022/03/18 06:04:52;;;;;;;50.85;28.50;;;;;;;-4.17;58.02;96680.58;1704904;82;21025;-51
2022/03/18 06:07:20;;;;;;;63.45;33.88;;;;;;;-4.17;58.19;96682.73;1709839;81;21049;-53
2022/03/18 06:12:35;;;;;;;73.60;37.63;;;;;;;-4.17;57.81;96683.27;1706925;82;21923;-53
2022/03/18 06:15:03;;;;;;;60.43;33.67;;;;;;;-4.20;57.91;96686.58;1709303;81;21035;-58
2022/03/18 06:17:32;;;;;;;64.25;30.88;;;;;;;-4.19;58.00;96688.16;1708326;82;21065;-58
2022/03/18 06:20:00;;;;;;;61.77;33.42;;;;;;;-4.17;58.04;96681.39;1713334;82;21093;-50
2022/03/18 06:22:29;;;;;;;56.83;29.67;;;;;;;-4.18;58.04;96689.21;1708489;81;21089;-53
2022/03/18 06:24:56;;;;;;;47.40;27.13;;;;;;;-4.14;58.01;96688.02;1713329;82;21297;-53
2022/03/18 06:27:23;;;;;;;55.15;27.75;;;;;;;-4.08;57.88;96687.59;1709240;81;21009;-53
2022/03/18 06:29:51;;;;;;;50.10;27.77;;;;;;;-3.91;57.56;96695.77;1706890;82;21107;-53
2022/03/18 06:32:18;;;;;;;54.85;30.43;;;;;;;-3.77;57.20;96697.02;1704738;82;21144;-52
2022/03/18 06:34:45;;;;;;;62.03;34.85;;;;;;;-3.63;56.78;96701.75;1711360;81;21058;-53
2022/03/18 06:37:13;;;;;;;56.98;27.67;;;;;;;-3.59;56.61;96700.03;1709900;81;22175;-54
2022/03/18 06:39:41;;;;;;;45.15;27.07;;;;;;;-3.49;56.67;96705.38;1718302;82;21846;-54
2022/03/18 06:42:09;;;;;;;53.28;29.05;;;;;;;-3.39;56.41;96700.28;1706183;82;21064;-53
2022/03/18 06:44:36;;;;;;;53.00;30.23;;;;;;;-3.32;56.19;96706.80;1706390;81;21088;-53
2022/03/18 06:47:04;;;;;;;56.28;31.80;;;;;;;-3.21;56.02;96704.05;1708990;82;21129;-54
2022/03/18 06:49:31;;;;;;;50.85;30.17;;;;;;;-3.12;55.94;96703.53;1710194;82;22220;-52
2022/03/18 06:51:59;;;;;;;61.90;30.05;;;;;;;-3.07;55.97;96702.03;1701686;82;21007;-50
2022/03/18 06:54:26;;;;;;;48.40;25.95;;;;;;;-2.97;55.74;96703.09;1709356;81;21059;-51
2022/03/18 06:56:54;;;;;;;56.70;29.92;;;;;;;-2.91;55.31;96707.79;1710062;81;21006;-55
2022/03/18 06:59:21;;;;;;;59.60;31.10;;;;;;;-2.81;55.34;96708.28;1708381;81;21029;-53
2022/03/18 07:01:49;;;;;;;52.55;26.15;;;;;;;-2.51;55.00;96711.95;1710211;81;21449;-53
2022/03/18 07:04:16;;;;;;;48.50;25.48;;;;;;;-2.34;54.44;96709.27;1705345;81;21078;-53
2022/03/18 07:06:46;;;;;;;38.02;21.15;;;;;;;-2.28;53.90;96717.42;1706116;82;21082;-53
2022/03/18 07:09:13;;;;;;;44.85;22.45;;;;;;;-2.18;53.81;96717.89;1704843;82;21076;-54
2022/03/18 07:11:40;;;;;;;39.73;21.90;;;;;;;-2.01;53.40;96715.17;1701422;81;21044;-54
2022/03/18 07:14:07;;;;;;;51.05;24.82;;;;;;;-1.86;53.04;96711.18;1705744;82;21939;-55
2022/03/18 07:19:22;;;;;;;37.17;21.90;;;;;;;-1.61;52.64;96715.17;1707808;81;21004;-56
2022/03/18 07:21:49;;;;;;;40.23;23.87;;;;;;;-1.47;52.20;96719.81;1709685;81;21006;-55
2022/03/18 07:24:17;;;;;;;39.75;21.82;;;;;;;-1.44;51.86;96719.17;1692066;82;21095;-54
2022/03/18 07:26:47;;;;;;;30.75;19.07;;;;;;;-1.41;51.84;96724.72;1702982;82;21146;-52
2022/03/18 07:29:15;;;;;;;30.25;19.15;;;;;;;-1.32;51.70;96720.64;1708779;82;21054;-53
2022/03/18 07:31:44;;;;;;;25.20;18.15;;;;;;;-1.25;51.74;96712.82;1695931;82;21561;-54
2022/03/18 07:34:13;;;;;;;41.10;21.23;;;;;;;-1.10;51.40;96712.28;1708733;82;20993;-52
2022/03/18 07:36:41;;;;;;;32.88;20.52;;;;;;;-0.97;50.86;96712.05;1706972;81;21073;-53
2022/03/18 07:39:08;;;;;;;36.85;20.15;;;;;;;-0.81;50.49;96716.36;1711213;81;21137;-52
2022/03/18 07:41:38;;;;;;;36.83;21.48;;;;;;;-0.56;50.69;96722.15;1712872;81;21023;-55
2022/03/18 07:44:05;;;;;;;26.23;18.12;;;;;;;-0.30;50.73;96713.28;1694599;82;21058;-54
2022/03/18 07:46:33;;;;;;;30.77;18.95;;;;;;;-0.13;49.15;96715.84;1714741;82;21569;-53
2022/03/18 07:49:02;;;;;;;31.02;19.12;;;;;;;-0.11;49.03;96712.25;1699405;82;21524;-54
2022/03/18 07:51:31;;;;;;;33.25;18.52;;;;;;;-0.11;48.93;96714.95;1700217;83;21151;-53
2022/03/18 07:53:58;;;;;;;38.73;20.88;;;;;;;-0.08;48.95;96715.67;1709782;82;21005;-53
2022/03/18 07:56:26;;;;;;;46.77;21.45;;;;;;;-0.03;49.02;96710.82;1707041;82;21050;-53
2022/03/18 07:58:54;;;;;;;24.35;16.15;;;;;;;0.14;49.43;96709.31;1709414;82;21567;-53
2022/03/18 08:01:25;;;;;;;30.12;17.60;;;;;;;0.42;49.17;96708.38;1713278;82;21041;-54
2022/03/18 08:03:56;;;;;;;32.70;16.37;;;;;;;0.68;48.62;96712.97;1709961;82;22181;-59
2022/03/18 08:06:27;;;;;;;29.37;18.27;;;;;;;0.92;47.34;96712.99;1696004;82;21070;-53
2022/03/18 08:08:54;;;;;;;27.25;19.23;;;;;;;0.98;46.26;96708.14;1693129;82;21143;-57
2022/03/18 08:11:24;;;;;;;27.05;17.73;;;;;;;1.01;46.12;96706.91;1711984;82;21037;-54
2022/03/18 08:13:53;;;;;;;22.82;15.70;;;;;;;1.07;45.62;96704.20;1706831;82;20971;-54
2022/03/18 08:16:22;;;;;;;21.25;12.43;;;;;;;1.13;45.35;96697.41;1704994;81;21229;-55
2022/03/18 08:18:51;;;;;;;24.98;12.68;;;;;;;1.18;43.94;96701.23;1684617;82;21101;-52
2022/03/18 08:21:19;;;;;;;30.23;16.42;;;;;;;1.20;43.30;96701.72;1675889;83;21190;-53
2022/03/18 08:23:50;;;;;;;19.30;12.30;;;;;;;1.31;43.96;96696.62;1703747;81;21039;-54
2022/03/18 08:26:20;;;;;;;16.77;11.97;;;;;;;1.46;42.84;96691.83;1698437;81;21125;-54
2022/03/18 08:28:49;;;;;;;21.25;14.38;;;;;;;1.50;42.27;96686.75;1698913;82;21680;-54
2022/03/18 08:31:18;;;;;;;20.52;13.13;;;;;;;1.57;42.78;96686.98;1707426;81;21005;-53
2022/03/18 08:33:45;;;;;;;27.93;15.15;;;;;;;1.71;42.50;96686.02;1718567;81;21486;-53
2022/03/18 08:36:13;;;;;;;21.90;13.95;;;;;;;1.91;41.77;96686.41;1716822;81;21054;-53
2022/03/18 08:38:40;;;;;;;18.45;12.30;;;;;;;2.14;41.89;96690.19;1696141;81;21158;-53
2022/03/18 08:41:07;;;;;;;23.15;13.62;;;;;;;2.33;39.77;96680.82;1711679;82;21798;-54
2022/03/18 08:43:37;;;;;;;21.90;12.13;;;;;;;2.28;38.60;96689.19;1714485;81;21132;-53
2022/03/18 08:46:05;;;;;;;32.13;15.75;;;;;;;2.18;37.80;96684.28;1705025;82;21022;-54
2022/03/18 08:48:33;;;;;;;14.15;9.73;;;;;;;2.16;39.29;96691.98;1711678;82;21024;-54
2022/03/18 08:51:01;;;;;;;21.05;11.78;;;;;;;2.30;37.85;96693.16;1716583;82;21236;-55
2022/03/18 08:53:28;;;;;;;12.35;9.55;;;;;;;2.48;38.24;96695.00;1712257;82;21174;-55
2022/03/18 08:55:56;;;;;;;20.50;11.83;;;;;;;2.70;37.90;96693.05;1701472;82;20998;-54
2022/03/18 08:58:24;;;;;;;15.80;11.55;;;;;;;2.83;36.88;96701.36;1699546;82;21022;-54
2022/03/18 09:00:53;;;;;;;36.38;20.05;;;;;;;2.84;36.57;96705.07;1715460;81;21140;-61
2022/03/18 09:03:20;;;;;;;41.13;18.65;;;;;;;2.80;37.00;96706.11;1714113;82;21902;-55
2022/03/18 09:05:48;;;;;;;37.78;19.62;;;;;;;2.86;37.60;96703.38;1703264;81;21238;-54
2022/03/18 09:08:16;;;;;;;41.33;24.75;;;;;;;2.98;37.14;96699.99;1686216;83;21136;-54
2022/03/18 09:10:44;;;;;;;15.65;11.63;;;;;;;3.04;35.95;96697.80;1698716;82;21026;-56
2022/03/18 09:13:11;;;;;;;21.65;13.65;;;;;;;3.07;35.40;96707.39;1703342;82;21034;-54
2022/03/18 09:15:40;;;;;;;53.25;27.40;;;;;;;3.09;35.35;96702.97;1708787;82;21068;-55
2022/03/18 09:18:08;;;;;;;78.15;31.95;;;;;;;3.09;36.04;96701.61;1719415;81;21842;-56
2022/03/18 09:20:38;;;;;;;24.77;14.85;;;;;;;3.20;35.72;96704.03;1695761;82;21086;-54
2022/03/18 09:23:08;;;;;;;21.52;12.58;;;;;;;3.40;36.62;96702.95;1711325;82;21014;-55
2022/03/18 09:25:38;;;;;;;16.23;10.95;;;;;;;3.67;35.95;96699.49;1708124;82;21115;-55
2022/03/18 09:28:08;;;;;;;15.63;10.85;;;;;;;3.93;35.31;96694.25;1709325;81;21029;-53
2022/03/18 09:30:42;;;;;;;14.73;9.98;;;;;;;4.08;34.25;96696.09;1702656;81;21197;-58
2022/03/18 09:33:09;;;;;;;25.17;13.60;;;;;;;4.17;33.62;96691.23;1702127;81;21117;-54
2022/03/18 09:35:37;;;;;;;36.30;18.57;;;;;;;4.22;33.28;96697.75;1703601;81;21106;-56
2022/03/18 09:38:05;;;;;;;46.20;31.12;;;;;;;4.33;34.00;96697.95;1706932;82;21108;-54
2022/03/18 09:40:33;;;;;;;22.77;11.78;;;;;;;4.52;33.99;96697.94;1708329;82;21109;-55
2022/03/18 09:43:05;;;;;;;14.13;9.75;;;;;;;4.72;34.38;96698.92;1697964;82;21965;-55
2022/03/18 09:45:36;;;;;;;37.60;15.70;;;;;;;4.99;34.25;96704.64;1699147;82;21027;-53
2022/03/18 09:48:06;;;;;;;38.35;18.45;;;;;;;5.30;32.86;96700.31;1695010;82;21081;-56
2022/03/18 09:50:34;;;;;;;26.73;14.25;;;;;;;5.60;31.87;96692.98;1708657;83;20979;-55
2022/03/18 09:53:01;;;;;;;16.23;11.70;;;;;;;6.04;33.23;96694.81;1704377;82;21149;-54
2022/03/18 09:55:34;;;;;;;13.80;9.75;;;;;;;6.48;30.79;96698.48;1707534;82;21786;-56
2022/03/18 09:58:02;;;;;;;17.45;11.35;;;;;;;6.94;31.54;96689.39;1704582;82;21121;-55
2022/03/18 10:00:30;;;;;;;19.15;13.83;;;;;;;7.35;31.53;96695.23;1720868;81;21093;-56
2022/03/18 10:03:16;;;;;;;16.05;10.70;;;;;;;7.74;31.55;96693.56;1708406;81;21065;-53
2022/03/18 10:05:52;;;;;;;13.03;9.15;;;;;;;8.28;29.42;96693.52;1714012;82;21070;-54
2022/03/18 10:08:21;;;;;;;18.15;12.18;;;;;;;8.82;28.24;96689.81;1702392;82;21153;-54
2022/03/18 10:10:50;;;;;;;13.48;7.70;;;;;;;9.14;27.87;96696.92;1706003;82;21068;-54
2022/03/18 10:13:22;;;;;;;15.15;8.45;;;;;;;9.20;26.52;96693.98;1708765;82;21036;-52
2022/03/18 10:15:52;;;;;;;13.62;10.53;;;;;;;9.17;26.00;96697.52;1701492;82;21096;-55
2022/03/18 10:18:23;;;;;;;11.38;8.03;;;;;;;9.12;26.16;96696.53;1712358;82;21092;-53
2022/03/18 10:20:51;;;;;;;22.35;11.88;;;;;;;9.38;27.04;96692.03;1710361;82;21124;-58
2022/03/18 10:23:21;;;;;;;26.95;14.95;;;;;;;9.80;26.84;96690.66;1700243;82;21761;-55
2022/03/18 10:25:53;;;;;;;15.98;9.85;;;;;;;10.34;26.03;96698.43;1694058;82;21033;-55
2022/03/18 10:28:37;;;;;;;18.82;10.58;;;;;;;10.86;26.09;96691.31;1712533;82;21056;-55
2022/03/18 10:31:11;;;;;;;14.65;9.53;;;;;;;11.15;24.90;96699.61;1703896;83;20982;-55
2022/03/18 10:37:06;;;;;;;10.82;7.78;;;;;;;11.97;23.49;96696.62;1715841;81;21584;-56
2022/03/18 10:39:45;;;;;;;20.68;8.33;;;;;;;12.25;23.07;96684.52;1690897;82;21050;-55
2022/03/18 10:42:15;;;;;;;22.95;10.05;;;;;;;12.14;22.75;96692.91;1708446;82;21141;-57
2022/03/18 10:44:54;;;;;;;23.55;9.98;;;;;;;12.22;23.12;96693.01;1690851;82;21034;-56
2022/03/18 10:47:38;;;;;;;14.98;9.45;;;;;;;12.47;22.48;96695.50;1702023;82;21271;-56
2022/03/18 10:50:18;;;;;;;19.10;11.00;;;;;;;12.85;22.02;96686.14;1693262;82;21633;-54
2022/03/18 10:53:02;;;;;;;9.00;6.00;;;;;;;13.34;21.69;96686.07;1698045;82;21046;-56
2022/03/18 10:55:42;;;;;;;15.83;6.92;;;;;;;13.65;21.87;96682.80;1709130;82;20978;-56
2022/03/18 10:58:16;;;;;;;10.05;6.75;;;;;;;13.81;22.48;96680.78;1661610;84;21086;-55
2022/03/18 11:00:50;;;;;;;16.87;7.25;;;;;;;14.16;21.68;96675.42;1694499;83;21576;-54
2022/03/18 11:03:18;;;;;;;15.30;7.92;;;;;;;14.71;21.00;96682.46;1699067;83;20926;-56
2022/03/18 11:05:49;;;;;;;14.07;9.38;;;;;;;15.12;21.74;96671.08;1703168;82;22131;-55
2022/03/18 11:08:21;;;;;;;20.77;12.00;;;;;;;15.42;20.79;96669.45;1719969;82;21520;-59
2022/03/18 11:11:14;;;;;;;22.87;11.70;;;;;;;15.39;19.62;96664.73;1712661;82;21623;-56
2022/03/18 11:13:53;;;;;;;24.47;9.95;;;;;;;15.38;20.70;96672.13;1699715;81;20974;-56
2022/03/18 11:16:25;;;;;;;8.73;6.12;;;;;;;15.69;19.45;96668.58;1714599;82;21085;-54
2022/03/18 11:18:53;;;;;;;13.00;7.47;;;;;;;15.58;18.30;96670.82;1708141;82;21696;-55
2022/03/18 11:21:25;;;;;;;16.85;8.23;;;;;;;15.42;19.57;96672.22;1710124;82;21031;-55
2022/03/18 11:23:54;;;;;;;12.85;7.28;;;;;;;15.54;19.83;96675.68;1703030;82;21594;-56
2022/03/18 11:26:21;;;;;;;9.38;6.33;;;;;;;15.77;19.77;96667.18;1697841;82;21188;-55
2022/03/18 11:29:09;;;;;;;15.45;8.45;;;;;;;15.98;20.27;96668.66;1722029;83;21042;-54
2022/03/18 11:31:38;;;;;;;19.50;7.97;;;;;;;16.30;20.25;96663.82;1707484;82;21046;-53
2022/03/18 11:34:17;;;;;;;20.15;9.58;;;;;;;16.52;19.40;96658.67;1684399;82;20994;-54
2022/03/18 11:36:48;;;;;;;15.63;7.37;;;;;;;16.68;19.02;96654.45;1704219;82;21069;-53
2022/03/18 11:39:22;;;;;;;14.13;9.65;;;;;;;16.76;18.76;96657.81;1690802;82;21849;-53
2022/03/18 11:41:56;;;;;;;24.67;10.05;;;;;;;16.70;18.26;96652.63;1705734;81;21011;-55
2022/03/18 11:44:58;;;;;;;13.20;7.75;;;;;;;16.84;18.48;96659.15;1706077;82;21106;-55